This is the latest recevied weather packets stored in our database for station/object OK1LPD-6. If no packets are shown the sender has not sent any weather packets the latest 10 day(s).
| Time | Temp. | Humidity | Pressure | Rain* | Wind** | Luminosity | Snow |
|---|---|---|---|---|---|---|---|
| 1778137519 | 16.11° C | 71% | 1010.3 hPa | 0 mm | - | - | - |
| 1778136919 | 15.56° C | 71% | 1010.2 hPa | 0 mm | - | - | - |
| 1778136339 | 15.56° C | 72% | 1010.2 hPa | 0 mm | - | - | - |
| 1778135720 | 15.56° C | 73% | 1010.2 hPa | 0 mm | - | - | - |
| 1778135119 | 15.56° C | 72% | 1010.1 hPa | 0 mm | - | - | - |
| 1778134541 | 16.11° C | 71% | 1010 hPa | 0 mm | - | - | - |
| 1778133920 | 16.11° C | 71% | 1009.7 hPa | 0 mm | - | - | - |
| 1778133319 | 17.22° C | 70% | 1009.7 hPa | 0 mm | - | - | - |
| 1778132731 | 17.22° C | 70% | 1009.6 hPa | 0 mm | - | - | - |
| 1778132120 | 17.78° C | 70% | 1009.5 hPa | 0 mm | - | - | - |
| 1778131520 | 15.56° C | 78% | 1009.5 hPa | 0 mm | - | - | - |
| 1778130932 | 15° C | 81% | 1009.4 hPa | 0 mm | - | - | - |
| 1778130320 | 15° C | 83% | 1009.4 hPa | 0 mm | - | - | - |
| 1778129721 | 15° C | 91% | 1009.3 hPa | 0 mm | - | - | - |
| 1778129132 | 14.44° C | 97% | 1009.1 hPa | 0 mm | - | - | - |
| 1778128520 | 13.33° C | 98% | 1009 hPa | 0 mm | - | - | - |
| 1778127920 | 11.67° C | 99% | 1008.9 hPa | 0 mm | - | - | - |
| 1778127333 | 11.11° C | 99% | 1009 hPa | 0 mm | - | - | - |
| 1778126722 | 10.56° C | 99% | 1009 hPa | 0 mm | - | - | - |
| 1778126120 | 10.56° C | 99% | 1008.9 hPa | 0 mm | - | - | - |
| 1778125532 | 10.56° C | 99% | 1008.6 hPa | 0 mm | - | - | - |
| 1778124922 | 10.56° C | 99% | 1008.4 hPa | 0 mm | - | - | - |
| 1778124320 | 10.56° C | 99% | 1008.4 hPa | 0 mm | - | - | - |
| 1778123734 | 10.56° C | 99% | 1008.4 hPa | 0 mm | - | - | - |
| 1778123122 | 11.11° C | 99% | 1008.4 hPa | 0 mm | - | - | - |
* Rain latest hour (hover to see other rain measurements)
** Current wind speed in m/s (hover to see current wind gust speed)